createdAt,value
2023-10-25T04:25:30.525Z,8.24
2023-10-25T04:28:43.321Z,8.22
2023-10-25T04:57:33.304Z,8.24
2023-10-25T05:17:15.374Z,8.45
2023-10-25T05:27:02.737Z,8.56
2023-10-25T05:57:20.737Z,8.57
2023-10-25T06:15:24.000Z,8.68
2023-10-25T07:33:17.294Z,9.29
2023-10-25T07:38:56.670Z,9.35
2023-10-25T07:46:51.819Z,9.43
2023-10-25T08:16:33.760Z,9.68
2023-10-25T08:28:03.381Z,9.86
2023-10-25T08:30:30.682Z,9.89
2023-10-25T08:41:26.646Z,9.93
2023-10-25T08:44:12.352Z,9.94
2023-10-25T08:46:41.319Z,9.96
2023-10-25T08:49:07.933Z,9.96
2023-10-25T08:51:36.615Z,9.97
2023-10-25T08:54:03.812Z,9.97
2023-10-25T08:56:30.547Z,9.96
2023-10-25T08:59:00.156Z,9.95
2023-10-25T09:01:29.012Z,9.96
2023-10-25T10:01:12.709Z,10.19
2023-10-25T10:04:03.070Z,10.21
2023-10-25T10:06:50.691Z,10.24
2023-10-25T10:10:00.816Z,10.25
2023-10-25T10:12:51.867Z,10.25
2023-10-25T10:19:14.468Z,10.30
2023-10-25T10:25:56.593Z,10.29
2023-10-25T10:28:39.642Z,10.31
2023-10-25T10:31:10.809Z,10.33
2023-10-25T10:33:45.157Z,10.34
2023-10-25T10:36:12.357Z,10.37
2023-10-25T10:39:14.216Z,10.39
2023-10-25T10:41:45.303Z,10.45
2023-10-25T10:44:13.083Z,10.47
2023-10-25T10:46:50.961Z,10.49
2023-10-25T10:49:23.028Z,10.50
2023-10-25T10:52:19.245Z,10.53
2023-10-25T10:54:50.936Z,10.54
2023-10-25T10:57:17.621Z,10.54
2023-10-25T10:59:46.598Z,10.58
2023-10-25T11:02:14.038Z,10.61
2023-10-25T11:07:31.049Z,10.62
2023-10-25T11:10:00.058Z,10.63
2023-10-25T11:12:27.366Z,10.65
2023-10-25T11:14:55.961Z,10.65
2023-10-25T11:17:25.880Z,10.67
2023-10-25T11:19:52.673Z,10.66
2023-10-25T11:22:19.341Z,10.69
2023-10-25T11:24:49.206Z,10.70
2023-10-25T11:27:20.472Z,10.71
2023-10-25T11:29:49.886Z,10.72
2023-10-25T11:32:16.621Z,10.74
2023-10-25T11:34:45.009Z,10.74
2023-10-25T11:37:13.649Z,10.75
2023-10-25T11:40:16.069Z,10.77
2023-10-25T11:45:51.800Z,10.80
2023-10-25T11:48:21.764Z,10.83
2023-10-25T11:50:48.434Z,10.85
2023-10-25T11:56:25.742Z,10.85
2023-10-25T11:58:53.063Z,10.87
2023-10-25T13:28:28.227Z,10.94
2023-10-25T13:31:22.068Z,10.93
2023-10-25T13:33:50.143Z,10.92
2023-10-25T13:36:19.466Z,10.91
2023-10-25T13:42:04.684Z,10.85
2023-10-25T13:55:49.089Z,10.90
2023-10-25T13:58:52.865Z,10.90
2023-10-25T14:04:09.726Z,10.89
2023-10-25T14:10:03.423Z,10.91
2023-10-25T14:12:31.307Z,10.92
2023-10-25T14:18:30.159Z,10.93
2023-10-25T14:20:39.356Z,10.92
2023-10-25T14:23:06.668Z,10.93
2023-10-25T14:26:01.921Z,10.91
2023-10-25T15:38:21.084Z,10.96
2023-10-25T15:41:49.264Z,10.92
2023-10-25T16:09:08.042Z,10.87
2023-10-25T16:12:03.150Z,10.87
2023-10-25T16:14:33.213Z,10.85
2023-10-25T16:17:03.689Z,10.86
2023-10-25T16:19:32.389Z,10.87
2023-10-25T16:22:10.124Z,10.87
2023-10-25T16:24:36.883Z,10.87
2023-10-25T16:27:08.772Z,10.85
2023-10-25T16:29:49.062Z,10.85
2023-10-25T16:32:31.158Z,10.85
2023-10-25T16:34:58.141Z,10.87
2023-10-25T16:37:26.997Z,10.89
2023-10-25T16:47:55.828Z,10.82
2023-10-25T16:59:48.918Z,10.85
2023-10-25T17:24:04.327Z,10.79
2023-10-25T17:32:27.997Z,10.80
2023-10-25T17:34:54.608Z,10.77
2023-10-25T17:37:23.577Z,10.79
2023-10-25T17:39:50.554Z,10.79
2023-10-25T17:42:17.376Z,10.82
2023-10-25T17:44:44.410Z,10.81
2023-10-25T17:47:12.499Z,10.83
2023-10-25T17:49:39.175Z,10.83
2023-10-25T17:52:07.453Z,10.82
2023-10-25T17:54:38.574Z,10.82
2023-10-25T17:57:08.826Z,10.82
2023-10-25T18:00:02.176Z,10.82
2023-10-25T18:02:47.448Z,10.80
2023-10-25T18:05:15.596Z,10.80
2023-10-25T18:07:45.506Z,10.82
2023-10-25T18:13:15.616Z,10.82
2023-10-25T18:15:42.461Z,10.82
2023-10-25T18:18:11.554Z,10.80
2023-10-25T18:20:39.653Z,10.81
2023-10-25T18:23:27.401Z,10.79
2023-10-25T18:25:54.217Z,10.80
2023-10-25T18:28:21.028Z,10.79
2023-10-25T18:32:20.299Z,10.76
2023-10-25T18:33:53.933Z,10.80
2023-10-25T18:38:29.586Z,10.82
2023-10-25T18:39:14.063Z,10.83
2023-10-25T18:44:28.336Z,10.87
2023-10-25T18:47:38.980Z,10.86
2023-10-25T18:50:36.216Z,10.86
2023-10-25T18:53:05.588Z,10.85
2023-10-25T18:55:37.772Z,10.86
2023-10-25T18:58:10.085Z,10.85
2023-10-25T19:00:39.551Z,10.84
2023-10-25T19:03:07.659Z,10.84
